createdAt,value
2023-03-26T00:01:37.662Z,99998.74
2023-03-26T00:04:07.185Z,99999.77
2023-03-26T00:06:38.559Z,99993.96
2023-03-26T00:09:09.724Z,99998.47
2023-03-26T00:11:37.331Z,99995.42
2023-03-26T00:14:05.837Z,99997.92
2023-03-26T00:16:33.922Z,99998.55
2023-03-26T00:19:02.342Z,99999.89
2023-03-26T00:21:31.239Z,100008.04
2023-03-26T00:24:08.505Z,100008.08
2023-03-26T00:26:38.037Z,100006.17
2023-03-26T00:29:06.303Z,100002.05
2023-03-26T00:31:37.450Z,99997.89
2023-03-26T00:34:05.747Z,99999.05
2023-03-26T00:36:35.461Z,99998.11
2023-03-26T00:39:05.137Z,100000.78
2023-03-26T00:41:36.494Z,99994.36
2023-03-26T00:44:04.371Z,99992.08
2023-03-26T00:46:32.383Z,99995.05
2023-03-26T00:49:03.372Z,99999.92
2023-03-26T00:51:33.414Z,100005.70
2023-03-26T00:54:01.156Z,100010.67
2023-03-26T00:56:28.832Z,100013.13
2023-03-26T00:58:57.406Z,100017.24
2023-03-26T01:01:27.698Z,100014.71
2023-03-26T01:04:18.553Z,100016.52
2023-03-26T01:06:46.414Z,100021.04
2023-03-26T01:09:20.214Z,100024.10
2023-03-26T01:11:48.587Z,100024.02
2023-03-26T01:14:23.531Z,100028.58
2023-03-26T01:17:02.092Z,100028.74
2023-03-26T01:19:58.588Z,100034.13
2023-03-26T01:22:27.489Z,100030.40
2023-03-26T01:24:55.949Z,100030.01
2023-03-26T01:27:28.751Z,100031.02
2023-03-26T01:30:16.775Z,100035.23
2023-03-26T01:33:15.833Z,100037.94
2023-03-26T01:36:05.103Z,100040.45
2023-03-26T01:38:40.170Z,100045.67
2023-03-26T01:41:11.930Z,100040.09
2023-03-26T01:43:50.787Z,100040.95
2023-03-26T01:46:20.722Z,100042.72
2023-03-26T01:48:48.613Z,100038.62
2023-03-26T01:51:32.646Z,100038.38
2023-03-26T01:54:05.878Z,100037.95
2023-03-26T01:57:03.412Z,100034.79
2023-03-26T02:00:25.280Z,100028.73
2023-03-26T02:03:20.601Z,100028.98
2023-03-26T02:05:50.621Z,100027.13
2023-03-26T02:08:53.916Z,100027.54
2023-03-26T02:11:23.302Z,100024.11
2023-03-26T02:13:51.993Z,100024.88
2023-03-26T02:16:20.621Z,100021.59
2023-03-26T02:18:51.005Z,100023.40
2023-03-26T02:21:22.008Z,100025.23
2023-03-26T02:23:57.291Z,100028.71
2023-03-26T02:26:25.477Z,100036.13
2023-03-26T02:29:19.852Z,100036.02
2023-03-26T02:31:48.723Z,100039.88
2023-03-26T02:34:17.156Z,100038.50
2023-03-26T02:36:54.470Z,100037.20
2023-03-26T02:39:22.184Z,100040.02
2023-03-26T02:41:56.598Z,100034.95
2023-03-26T02:44:24.479Z,100032.18
2023-03-26T02:47:29.747Z,100029.80
2023-03-26T02:50:17.547Z,100029.24
2023-03-26T02:53:09.480Z,100032.83
2023-03-26T02:55:37.958Z,100037.48
2023-03-26T02:58:05.925Z,100036.17
2023-03-26T03:00:37.078Z,100036.08
2023-03-26T03:04:03.820Z,100036.52
2023-03-26T03:06:38.034Z,100042.61
2023-03-26T03:09:10.685Z,100039.86
2023-03-26T03:11:40.741Z,100041.45
2023-03-26T03:14:08.505Z,100038.03
2023-03-26T03:16:36.443Z,100037.71
2023-03-26T03:19:07.108Z,100040.15
2023-03-26T03:21:37.430Z,100038.66
2023-03-26T03:24:05.815Z,100044.08
2023-03-26T03:26:40.848Z,100044.61
2023-03-26T03:30:06.046Z,100048.05
2023-03-26T03:32:51.936Z,100046.98
2023-03-26T03:35:22.208Z,100048.65
2023-03-26T03:37:52.541Z,100048.00
2023-03-26T03:40:20.263Z,100047.13
2023-03-26T03:42:48.550Z,100047.57
2023-03-26T03:45:21.732Z,100052.97
2023-03-26T03:48:07.998Z,100055.67
2023-03-26T03:50:44.508Z,100055.31
2023-03-26T03:53:28.962Z,100055.91
2023-03-26T03:55:59.346Z,100058.39
2023-03-26T03:58:38.822Z,100058.27
2023-03-26T04:01:12.942Z,100061.02
2023-03-26T04:03:58.467Z,100060.54
2023-03-26T04:06:31.523Z,100058.59
2023-03-26T04:08:59.179Z,100061.65
2023-03-26T04:11:27.057Z,100066.91
2023-03-26T04:14:12.834Z,100068.39
2023-03-26T04:16:57.250Z,100064.15
2023-03-26T04:19:27.018Z,100067.24
2023-03-26T04:21:54.966Z,100067.38
2023-03-26T04:24:24.168Z,100069.67
2023-03-26T04:27:31.690Z,100075.53
2023-03-26T04:30:20.178Z,100079.89
2023-03-26T04:32:52.818Z,100085.48
2023-03-26T04:35:20.471Z,100091.77
2023-03-26T04:37:52.422Z,100096.30
2023-03-26T04:40:24.811Z,100101.72
2023-03-26T04:43:17.648Z,100114.52
2023-03-26T04:45:51.763Z,100125.42
2023-03-26T04:48:20.144Z,100128.13
2023-03-26T04:50:49.029Z,100129.44
2023-03-26T04:53:23.894Z,100133.22
2023-03-26T04:56:28.520Z,100138.50
2023-03-26T04:59:25.514Z,100140.12
2023-03-26T05:01:53.920Z,100141.39
2023-03-26T05:04:22.240Z,100142.23
2023-03-26T05:07:00.313Z,100146.31
2023-03-26T05:09:35.441Z,100148.51
2023-03-26T05:12:12.216Z,100150.95
2023-03-26T05:14:49.613Z,100148.15
2023-03-26T05:17:24.155Z,100146.66
2023-03-26T05:19:52.156Z,100146.44
2023-03-26T05:22:20.396Z,100149.27
2023-03-26T05:25:07.837Z,100147.17
2023-03-26T05:27:35.571Z,100147.17
2023-03-26T05:30:05.810Z,100147.36
2023-03-26T05:32:35.727Z,100146.92
2023-03-26T05:35:04.704Z,100154.17
2023-03-26T05:37:32.977Z,100143.63
2023-03-26T05:40:11.812Z,100160.77
2023-03-26T05:42:46.860Z,100162.59
2023-03-26T05:45:28.636Z,100166.29
2023-03-26T05:47:56.606Z,100173.83
2023-03-26T05:50:25.719Z,100177.98
2023-03-26T05:52:56.646Z,100179.41
2023-03-26T05:56:11.413Z,100188.77
2023-03-26T05:58:57.316Z,100191.11
2023-03-26T06:01:44.447Z,100191.20
2023-03-26T06:04:25.828Z,100190.77
2023-03-26T06:07:16.409Z,100196.93
2023-03-26T06:09:47.343Z,100193.44
2023-03-26T06:12:15.432Z,100194.65
2023-03-26T06:14:43.109Z,100190.94
2023-03-26T06:17:20.278Z,100193.76
2023-03-26T06:20:10.890Z,100196.90
2023-03-26T06:22:41.913Z,100193.31
2023-03-26T06:25:25.640Z,100193.04
2023-03-26T06:28:23.520Z,100190.03
2023-03-26T06:31:03.311Z,100190.19
2023-03-26T06:33:43.734Z,100190.88
2023-03-26T06:36:12.788Z,100195.86
2023-03-26T06:38:41.508Z,100195.19
2023-03-26T06:41:09.784Z,100192.95
2023-03-26T06:43:56.296Z,100197.94
2023-03-26T06:46:42.609Z,100217.44
2023-03-26T06:49:28.904Z,100231.69
2023-03-26T06:52:15.015Z,100229.79
2023-03-26T06:55:09.995Z,100225.89
2023-03-26T06:57:57.722Z,100223.92
2023-03-26T07:01:07.128Z,100224.27
2023-03-26T07:03:53.311Z,100229.35
2023-03-26T07:06:39.358Z,100222.39
2023-03-26T07:09:29.798Z,100219.80
2023-03-26T07:12:38.180Z,100224.92
2023-03-26T07:15:48.549Z,100217.62
2023-03-26T07:19:12.031Z,100207.39
2023-03-26T07:21:41.783Z,100205.59
2023-03-26T07:24:27.225Z,100200.27
2023-03-26T07:27:33.372Z,100196.50
2023-03-26T07:30:41.582Z,100204.78
2023-03-26T07:34:11.402Z,100211.39
2023-03-26T07:37:05.540Z,100205.74
2023-03-26T07:40:27.521Z,100204.70
2023-03-26T07:43:56.313Z,100204.56
2023-03-26T07:46:48.982Z,100206.11
2023-03-26T07:49:32.505Z,100209.09
2023-03-26T07:52:29.394Z,100206.23
2023-03-26T07:55:08.206Z,100204.47
2023-03-26T07:58:29.116Z,100209.64
2023-03-26T08:01:31.666Z,100208.96
2023-03-26T08:04:26.058Z,100207.73
2023-03-26T08:07:53.330Z,100209.95
2023-03-26T08:11:04.597Z,100210.75
2023-03-26T08:13:59.904Z,100207.48
2023-03-26T08:16:52.866Z,100210.17
2023-03-26T08:19:48.690Z,100214.64
2023-03-26T08:22:26.913Z,100210.61
2023-03-26T08:25:27.118Z,100210.44
2023-03-26T08:28:13.624Z,100200.43
2023-03-26T08:30:42.037Z,100204.41
2023-03-26T08:33:18.205Z,100203.32
2023-03-26T08:35:47.124Z,100200.20
2023-03-26T08:38:18.621Z,100191.88
2023-03-26T08:41:24.475Z,100194.07
2023-03-26T08:44:31.885Z,100193.16
2023-03-26T08:47:33.333Z,100192.66
2023-03-26T08:50:38.524Z,100184.67
2023-03-26T08:53:39.227Z,100174.34
2023-03-26T08:56:39.693Z,100168.69
2023-03-26T08:59:22.249Z,100164.52
2023-03-26T09:02:21.967Z,100160.36
2023-03-26T09:05:34.014Z,100158.23
2023-03-26T09:08:04.084Z,100144.36
2023-03-26T09:11:16.042Z,100143.17
2023-03-26T09:14:23.960Z,100146.20
2023-03-26T09:17:25.411Z,100152.73
2023-03-26T09:20:34.595Z,100152.73
2023-03-26T09:23:43.949Z,100154.66
2023-03-26T09:26:42.620Z,100156.68
2023-03-26T09:29:41.020Z,100157.77
2023-03-26T09:32:42.580Z,100156.38
2023-03-26T09:36:11.811Z,100157.88
2023-03-26T09:38:54.337Z,100152.05
2023-03-26T09:41:43.816Z,100154.41
2023-03-26T09:44:32.404Z,100151.67
2023-03-26T09:47:36.044Z,100147.88
2023-03-26T09:50:18.329Z,100144.09
2023-03-26T09:53:13.468Z,100142.05
2023-03-26T09:56:00.030Z,100146.02
2023-03-26T09:58:45.763Z,100147.20
2023-03-26T10:01:51.616Z,100143.27
2023-03-26T10:04:45.743Z,100142.95
2023-03-26T10:07:21.577Z,100149.81
2023-03-26T10:10:01.175Z,100149.19
2023-03-26T10:13:04.887Z,100156.33
2023-03-26T10:15:54.569Z,100150.87
2023-03-26T10:18:33.088Z,100150.55
2023-03-26T10:21:53.670Z,100143.23
2023-03-26T10:24:55.606Z,100143.52
2023-03-26T10:28:06.613Z,100140.56
2023-03-26T10:31:06.810Z,100133.09
2023-03-26T10:33:51.798Z,100133.51
2023-03-26T10:36:37.216Z,100141.48
2023-03-26T10:39:59.937Z,100138.34
2023-03-26T10:42:58.621Z,100122.44
2023-03-26T10:45:49.873Z,100113.02
2023-03-26T10:49:00.526Z,100102.64
2023-03-26T10:51:58.825Z,100098.89
2023-03-26T10:54:35.646Z,100096.84
2023-03-26T10:57:34.264Z,100091.05
2023-03-26T11:00:15.165Z,100091.41
2023-03-26T11:03:14.378Z,100088.09
2023-03-26T11:06:02.702Z,100084.38
2023-03-26T11:09:01.795Z,100085.48
2023-03-26T11:11:57.129Z,100079.30
2023-03-26T11:14:42.321Z,100070.30
2023-03-26T11:17:39.356Z,100060.36
2023-03-26T11:20:18.264Z,100056.33
2023-03-26T11:23:23.336Z,100054.14
2023-03-26T11:26:08.885Z,100051.80
2023-03-26T11:29:04.944Z,100049.03
2023-03-26T11:32:05.586Z,100051.24
2023-03-26T11:35:14.033Z,100049.40
2023-03-26T11:37:47.493Z,100042.20
2023-03-26T11:40:41.103Z,100041.52
2023-03-26T11:43:16.613Z,100042.34
2023-03-26T11:45:48.535Z,100042.52
2023-03-26T11:48:40.037Z,100033.78
2023-03-26T11:51:12.443Z,100032.31
2023-03-26T11:53:46.597Z,100027.79
2023-03-26T11:56:28.766Z,100023.17
2023-03-26T11:59:21.986Z,100029.60
2023-03-26T12:01:56.815Z,100034.92
2023-03-26T12:04:36.013Z,100030.49
2023-03-26T12:07:23.036Z,100028.75
2023-03-26T12:09:56.307Z,100020.95
2023-03-26T12:12:40.438Z,100022.92
2023-03-26T12:15:18.365Z,100025.55
2023-03-26T12:17:55.524Z,100023.19
2023-03-26T12:20:25.991Z,100027.48
2023-03-26T12:22:58.603Z,100021.11
2023-03-26T12:25:36.302Z,100014.86
2023-03-26T12:28:16.813Z,100019.02
2023-03-26T12:31:04.592Z,100023.11
2023-03-26T12:33:34.865Z,100027.04
2023-03-26T12:36:29.839Z,100026.36
2023-03-26T12:39:43.047Z,100027.04
2023-03-26T12:44:42.224Z,100030.39
2023-03-26T12:44:58.778Z,100019.07
2023-03-26T12:48:00.848Z,100030.73
2023-03-26T12:50:34.077Z,100031.77
2023-03-26T12:53:31.467Z,100043.04
2023-03-26T12:56:37.999Z,100086.55
2023-03-26T12:59:45.146Z,100107.29
2023-03-26T13:02:29.071Z,100137.05
2023-03-26T13:05:28.105Z,100136.69
2023-03-26T13:08:23.346Z,100134.52
2023-03-26T13:11:43.213Z,100146.52
2023-03-26T13:14:43.436Z,100139.23
2023-03-26T13:17:43.217Z,100133.30
2023-03-26T13:20:26.594Z,100126.14
2023-03-26T13:23:07.786Z,100121.42
2023-03-26T13:26:09.009Z,100125.08
2023-03-26T13:29:29.395Z,100116.09
2023-03-26T13:32:09.061Z,100107.89
2023-03-26T13:35:07.194Z,100093.92
2023-03-26T13:37:42.057Z,100086.84
2023-03-26T13:40:26.591Z,100072.46
2023-03-26T13:43:37.795Z,100071.91
2023-03-26T13:46:32.231Z,100076.66
2023-03-26T13:49:29.454Z,100069.01
2023-03-26T13:52:11.463Z,100063.54
2023-03-26T13:55:17.529Z,100060.35
2023-03-26T13:58:59.511Z,100059.48
2023-03-26T14:01:35.815Z,100057.13
2023-03-26T14:04:31.639Z,100053.75
2023-03-26T14:07:23.370Z,100057.79
2023-03-26T14:10:00.839Z,100058.34
2023-03-26T14:12:56.326Z,100056.94
2023-03-26T14:15:56.722Z,100057.00
2023-03-26T14:18:52.007Z,100059.09
2023-03-26T14:21:54.785Z,100055.74
2023-03-26T14:24:46.824Z,100049.40
2023-03-26T14:28:04.389Z,100039.14
2023-03-26T14:31:03.489Z,100047.09
2023-03-26T14:33:40.593Z,100040.34
2023-03-26T14:36:53.279Z,100036.94
2023-03-26T14:39:38.132Z,100031.19
2023-03-26T14:42:30.647Z,100024.52
2023-03-26T14:45:23.474Z,100022.98
2023-03-26T14:48:10.040Z,100018.98
2023-03-26T14:51:03.772Z,100011.59
2023-03-26T14:53:41.753Z,100015.82
2023-03-26T14:56:24.225Z,100016.71
2023-03-26T14:59:13.275Z,100023.49
2023-03-26T15:02:02.499Z,100017.33
2023-03-26T15:04:54.585Z,100016.42
2023-03-26T15:08:23.507Z,100015.15
2023-03-26T15:15:12.325Z,100005.70
2023-03-26T15:18:06.918Z,100006.17
2023-03-26T15:21:10.188Z,100009.77
2023-03-26T15:24:15.376Z,100012.28
2023-03-26T15:26:58.808Z,100009.48
2023-03-26T15:30:06.123Z,100011.64
2023-03-26T15:33:07.445Z,100020.42
2023-03-26T15:35:40.902Z,100021.25
2023-03-26T15:38:43.103Z,100022.14
2023-03-26T15:41:34.171Z,100022.45
2023-03-26T15:44:24.543Z,100019.55
2023-03-26T15:47:30.945Z,100022.75
2023-03-26T15:50:32.354Z,100016.67
2023-03-26T15:53:27.389Z,100017.27
2023-03-26T15:56:11.351Z,100010.84
2023-03-26T15:59:22.684Z,100009.45
2023-03-26T16:02:20.917Z,100009.26
2023-03-26T16:05:37.418Z,100011.34
2023-03-26T16:08:46.866Z,100012.63
2023-03-26T16:11:16.047Z,100013.09
2023-03-26T16:14:30.070Z,100015.73
2023-03-26T16:16:59.483Z,100018.08
2023-03-26T16:20:17.188Z,100023.17
2023-03-26T16:22:57.128Z,100024.51
2023-03-26T16:25:33.086Z,100032.08
2023-03-26T16:28:32.087Z,100037.63
2023-03-26T16:31:36.810Z,100036.16
2023-03-26T16:34:07.343Z,100045.17
2023-03-26T16:36:42.361Z,100046.95
2023-03-26T16:39:22.993Z,100049.05
2023-03-26T16:42:33.851Z,100045.61
2023-03-26T16:45:41.733Z,100044.33
2023-03-26T16:48:32.334Z,100049.67
2023-03-26T16:51:39.313Z,100051.64
2023-03-26T16:54:27.993Z,100056.02
2023-03-26T16:57:30.018Z,100054.70
2023-03-26T17:00:07.422Z,100056.55
2023-03-26T17:03:03.116Z,100058.65
2023-03-26T17:05:43.908Z,100059.06
2023-03-26T17:08:38.366Z,100058.86
2023-03-26T17:11:39.828Z,100063.06
2023-03-26T17:14:27.958Z,100067.17
2023-03-26T17:17:39.951Z,100072.52
2023-03-26T17:20:42.342Z,100070.96
2023-03-26T17:23:42.671Z,100076.31
2023-03-26T17:27:10.740Z,100086.14
2023-03-26T17:30:31.796Z,100084.82
2023-03-26T17:33:03.054Z,100086.60
2023-03-26T17:35:41.851Z,100080.84
2023-03-26T17:38:29.201Z,100089.63
2023-03-26T17:40:59.337Z,100093.66
2023-03-26T17:43:45.025Z,100102.40
2023-03-26T17:46:38.817Z,100099.15
2023-03-26T17:49:12.600Z,100099.11
2023-03-26T17:51:42.299Z,100101.58
2023-03-26T17:54:30.758Z,100108.23
2023-03-26T17:57:06.964Z,100111.34
2023-03-26T17:59:38.808Z,100109.56
2023-03-26T18:02:20.468Z,100107.13
2023-03-26T18:04:53.181Z,100109.79
2023-03-26T18:08:16.776Z,100111.11
2023-03-26T18:11:02.621Z,100112.84
2023-03-26T18:14:22.792Z,100117.27
2023-03-26T18:16:59.151Z,100121.48
2023-03-26T18:19:28.076Z,100125.95
2023-03-26T18:22:06.872Z,100131.66
2023-03-26T18:24:40.721Z,100139.34
2023-03-26T18:27:22.702Z,100138.73
2023-03-26T18:29:56.378Z,100139.90
2023-03-26T18:32:32.739Z,100138.02
2023-03-26T18:35:16.641Z,100134.58
2023-03-26T18:37:45.711Z,100136.02
2023-03-26T18:40:21.663Z,100134.55
2023-03-26T18:42:52.849Z,100137.40
2023-03-26T18:45:26.086Z,100134.56
2023-03-26T18:48:00.927Z,100133.55
2023-03-26T18:50:39.343Z,100135.45
2023-03-26T18:53:21.028Z,100135.69
2023-03-26T18:55:50.144Z,100133.77
2023-03-26T18:58:29.671Z,100130.13
2023-03-26T19:01:25.408Z,100133.98
2023-03-26T19:03:54.931Z,100137.73
2023-03-26T19:06:23.350Z,100137.33
2023-03-26T19:08:53.125Z,100137.86
2023-03-26T19:11:21.167Z,100139.98
2023-03-26T19:14:14.349Z,100134.71
2023-03-26T19:16:55.870Z,100136.27
2023-03-26T19:19:38.838Z,100137.88
2023-03-26T19:22:08.589Z,100140.23
2023-03-26T19:24:36.722Z,100143.16
2023-03-26T19:27:04.871Z,100145.85
2023-03-26T19:29:35.121Z,100150.59
2023-03-26T19:32:17.755Z,100147.64
2023-03-26T19:34:47.662Z,100149.30
2023-03-26T19:37:24.966Z,100146.63
2023-03-26T19:40:23.977Z,100142.14
2023-03-26T19:42:51.502Z,100141.23
2023-03-26T19:45:23.178Z,100141.46
2023-03-26T19:48:00.518Z,100144.58
2023-03-26T19:50:36.096Z,100138.13
2023-03-26T19:53:17.483Z,100141.50
2023-03-26T19:55:58.310Z,100137.34
2023-03-26T19:58:27.312Z,100135.77
2023-03-26T20:00:58.081Z,100136.67
2023-03-26T20:03:39.088Z,100134.74
2023-03-26T20:06:11.744Z,100131.69
2023-03-26T20:08:40.228Z,100130.52
2023-03-26T20:11:20.896Z,100130.45
2023-03-26T20:13:49.681Z,100138.52
2023-03-26T20:16:26.697Z,100141.25
2023-03-26T20:18:57.029Z,100146.95
2023-03-26T20:21:25.468Z,100147.34
2023-03-26T20:23:53.252Z,100145.00
2023-03-26T20:26:23.172Z,100143.10
2023-03-26T20:28:53.383Z,100142.72
2023-03-26T20:31:26.089Z,100137.80
2023-03-26T20:33:54.189Z,100136.11
2023-03-26T20:36:33.880Z,100129.70
2023-03-26T20:39:05.098Z,100127.74
2023-03-26T20:41:33.292Z,100124.06
2023-03-26T20:44:03.217Z,100124.45
2023-03-26T20:46:31.918Z,100125.46
2023-03-26T20:48:59.858Z,100126.82
2023-03-26T20:51:27.731Z,100124.11
2023-03-26T20:53:56.170Z,100119.54
2023-03-26T20:56:23.840Z,100118.17
2023-03-26T20:59:09.988Z,100120.61
2023-03-26T21:01:38.437Z,100118.23
2023-03-26T21:04:06.927Z,100117.77
2023-03-26T21:06:34.728Z,100113.95
2023-03-26T21:09:03.793Z,100110.42
2023-03-26T21:12:01.870Z,100111.41
2023-03-26T21:14:40.593Z,100096.58
2023-03-26T21:17:20.607Z,100107.37
2023-03-26T21:19:49.042Z,100098.89
2023-03-26T21:22:33.072Z,100096.34
2023-03-26T21:25:22.554Z,100093.70
2023-03-26T21:27:51.122Z,100089.09
2023-03-26T21:30:19.532Z,100082.23
2023-03-26T21:32:48.125Z,100084.92
2023-03-26T21:35:16.681Z,100088.24
2023-03-26T21:37:48.127Z,100091.98
2023-03-26T21:40:17.932Z,100091.39
2023-03-26T21:42:50.078Z,100094.17
2023-03-26T21:45:20.144Z,100096.41
2023-03-26T21:47:48.870Z,100096.52
2023-03-26T21:50:21.425Z,100098.27
2023-03-26T21:52:51.183Z,100095.89
2023-03-26T21:55:22.886Z,100098.94
2023-03-26T21:58:05.374Z,100093.90
2023-03-26T22:01:02.451Z,100096.61
2023-03-26T22:04:07.665Z,100101.54
2023-03-26T22:06:55.098Z,100105.60
2023-03-26T22:09:33.916Z,100105.96
2023-03-26T22:12:05.395Z,100108.92
2023-03-26T22:14:34.054Z,100111.52
2023-03-26T22:17:01.520Z,100109.88
2023-03-26T22:19:30.390Z,100111.88
2023-03-26T22:21:59.629Z,100109.05
2023-03-26T22:24:27.678Z,100105.97
2023-03-26T22:26:55.651Z,100097.92
2023-03-26T22:29:23.208Z,100100.88
2023-03-26T22:31:50.881Z,100100.17
2023-03-26T22:34:19.400Z,100094.20
2023-03-26T22:36:47.019Z,100086.89
2023-03-26T22:39:14.582Z,100087.83
2023-03-26T22:41:42.450Z,100084.78
2023-03-26T22:44:19.921Z,100079.14
2023-03-26T22:46:51.957Z,100074.58
2023-03-26T22:49:20.486Z,100068.55
2023-03-26T22:51:49.797Z,100069.73
2023-03-26T22:54:17.652Z,100071.70
2023-03-26T22:56:45.341Z,100073.63
2023-03-26T22:59:12.893Z,100075.05
2023-03-26T23:01:41.191Z,100078.76
2023-03-26T23:04:08.937Z,100081.77
2023-03-26T23:06:36.591Z,100081.92
2023-03-26T23:09:06.537Z,100079.75
2023-03-26T23:11:34.374Z,100074.61
2023-03-26T23:14:01.952Z,100070.36
2023-03-26T23:16:29.673Z,100073.39
2023-03-26T23:18:57.680Z,100073.45
2023-03-26T23:21:25.124Z,100074.92
2023-03-26T23:23:52.791Z,100074.27
2023-03-26T23:26:20.963Z,100069.86
2023-03-26T23:28:50.673Z,100066.79
2023-03-26T23:31:18.356Z,100064.64
2023-03-26T23:33:46.272Z,100061.38
2023-03-26T23:36:17.401Z,100064.50
2023-03-26T23:38:47.660Z,100069.96
2023-03-26T23:41:20.860Z,100072.38
2023-03-26T23:43:55.970Z,100069.45
2023-03-26T23:46:30.022Z,100064.02
2023-03-26T23:49:04.059Z,100054.58
2023-03-26T23:51:32.047Z,100051.35
2023-03-26T23:54:01.095Z,100050.06
2023-03-26T23:56:29.593Z,100046.61
2023-03-26T23:58:58.790Z,100043.77
